Abraham, Utah
Current Conditions -  °F | °C
As of 2:55 AM on Friday 24 Oct 2014 (Local Time) from KDTA Reporting Station
Clear Clear  
Wind Chill: 57°   Ceiling: Unl
Heat Index: 57°   Visibility: 10mi
Dew Point: 29°   Wind: 12mph
Humidity: 34%   Direction: 170°S
Pressure: 30.16"   Gusts: NA
Location:  39.4463°N, 112.85°W
Report Text: KDTA 240855Z AUTO 17010KT 10SM CLR 14/M02 A3016 RMK AO1 T01381018
Loading
Personal Weather Stations






























Interactive Weather Map New forecast layout! Learn more

10-Day Weather Forecast

Advertisements
Track Severe Weather on mobile